Česky Dansk Deutsch English Español Suomi Français Magyar Italiano Nederlands norsk Polski Português svenska Türkçe

 

Het Weer

Toulouse / Francazal (Frankrijk)

18:30, 27 april 2012 (GMT)

NWNNE
WE
SWSSE
Home            
Toulouse / Francazal Toulouse / Blagnac St-Girons Auch Albi Carcassonne Agen Cassagnes-Begonhes Rodez Pau Perpignan Mont-De-Marsan Bergerac Beziers / Vias Aurillac Brive Perigueux Dax Mende / Brenoux Montpellier Gerona / Costa Brava Bordeaux / Merignac Cazaux

Om een weerknop op uw website of weblog te plaatsen, copieer onderstaande code en plak die in uw pagina. In het eerste vakje staat HTML-code, in het tweede vakje UBB-code.


Add to Google

Details

Wind speed:3 bf, 7 kn, 3.6 m/s, 8.1 miles/h, 13.0 km/h
Wind direction:E, 100° - S, 180°
Het Weer:moderate
moderate
moderate
Temperature:16°C, 61°F
Dew-point:13°C, 55°F
Atmospheric pressure:1008 hPa, 756.1 mmHg, 29.77 inHg, 0.995 atm
Relative humidity:82.4 %
METAR:LFBF 271830Z AUTO 14007KT 100V180 16/13 Q1008

Snelkoppelingen

Actuele weersinformatie van de hele wereld. Voeg locaties toe met het plus (+) symbool. Deze snelkoppelingen kunnen worden toegevoegd aan Google.

Lid van de Technetium groep

website free tracking
StatCounter NetStat W3C Validator

03-10-2022 12:36:41
astro.technetium.be money.technetium.be phote.technetium.be tafeltennistafel.technetium.be www.ligfiets.net